sensor_id;sensor_type;location;lat;lon;timestamp;temperature;humidity
9167;DHT22;4618;48.818;9.088;2022-12-18T00:01:36;-10.70;99.90
9167;DHT22;4618;48.818;9.088;2022-12-18T00:04:04;-10.60;1.00
9167;DHT22;4618;48.818;9.088;2022-12-18T00:06:31;-10.70;1.00
9167;DHT22;4618;48.818;9.088;2022-12-18T00:08:59;-10.70;1.00
9167;DHT22;4618;48.818;9.088;2022-12-18T00:11:27;-10.70;1.00
9167;DHT22;4618;48.818;9.088;2022-12-18T00:13:54;-10.80;1.00
9167;DHT22;4618;48.818;9.088;2022-12-18T00:16:22;-10.80;1.00
9167;DHT22;4618;48.818;9.088;2022-12-18T00:18:49;-10.90;1.00
9167;DHT22;4618;48.818;9.088;2022-12-18T00:21:16;-10.90;1.00
9167;DHT22;4618;48.818;9.088;2022-12-18T00:23:43;-10.90;1.00
9167;DHT22;4618;48.818;9.088;2022-12-18T00:26:16;-10.80;1.00
9167;DHT22;4618;48.818;9.088;2022-12-18T00:28:43;-10.70;99.90
9167;DHT22;4618;48.818;9.088;2022-12-18T00:31:18;-10.70;99.90
9167;DHT22;4618;48.818;9.088;2022-12-18T00:33:44;-10.80;99.90
9167;DHT22;4618;48.818;9.088;2022-12-18T00:36:12;-10.80;99.90
9167;DHT22;4618;48.818;9.088;2022-12-18T00:38:38;-10.80;99.90
9167;DHT22;4618;48.818;9.088;2022-12-18T00:41:04;-10.90;99.90
9167;DHT22;4618;48.818;9.088;2022-12-18T00:43:33;-10.90;99.90
9167;DHT22;4618;48.818;9.088;2022-12-18T00:45:59;-11.00;99.90
9167;DHT22;4618;48.818;9.088;2022-12-18T00:48:25;-11.10;17.10
9167;DHT22;4618;48.818;9.088;2022-12-18T00:50:50;-11.10;69.50
9167;DHT22;4618;48.818;9.088;2022-12-18T00:53:16;-11.00;96.70
9167;DHT22;4618;48.818;9.088;2022-12-18T00:55:42;-11.00;99.90
9167;DHT22;4618;48.818;9.088;2022-12-18T00:58:09;-10.90;99.90
9167;DHT22;4618;48.818;9.088;2022-12-18T01:00:35;-10.90;99.90
9167;DHT22;4618;48.818;9.088;2022-12-18T01:03:00;-10.90;99.90
9167;DHT22;4618;48.818;9.088;2022-12-18T01:05:26;-11.00;99.90
9167;DHT22;4618;48.818;9.088;2022-12-18T01:07:52;-11.10;30.60
9167;DHT22;4618;48.818;9.088;2022-12-18T01:10:18;-11.00;99.90
9167;DHT22;4618;48.818;9.088;2022-12-18T01:12:43;-11.00;99.90
9167;DHT22;4618;48.818;9.088;2022-12-18T01:15:10;-11.00;99.90
9167;DHT22;4618;48.818;9.088;2022-12-18T01:17:37;-11.00;99.90
9167;DHT22;4618;48.818;9.088;2022-12-18T01:20:03;-10.90;99.90
9167;DHT22;4618;48.818;9.088;2022-12-18T01:22:29;-10.90;99.90
9167;DHT22;4618;48.818;9.088;2022-12-18T01:24:55;-10.90;99.90
9167;DHT22;4618;48.818;9.088;2022-12-18T01:27:20;-10.90;99.90
9167;DHT22;4618;48.818;9.088;2022-12-18T01:29:46;-10.80;99.90
9167;DHT22;4618;48.818;9.088;2022-12-18T01:32:11;-10.80;99.90
9167;DHT22;4618;48.818;9.088;2022-12-18T01:34:37;-10.90;99.90
9167;DHT22;4618;48.818;9.088;2022-12-18T01:37:04;-11.10;99.90
9167;DHT22;4618;48.818;9.088;2022-12-18T01:39:30;-11.10;99.90
9167;DHT22;4618;48.818;9.088;2022-12-18T01:41:57;-11.10;99.90
9167;DHT22;4618;48.818;9.088;2022-12-18T01:44:55;-11.10;99.90
9167;DHT22;4618;48.818;9.088;2022-12-18T01:49:52;-11.20;99.90
9167;DHT22;4618;48.818;9.088;2022-12-18T01:52:18;-11.20;1.00
9167;DHT22;4618;48.818;9.088;2022-12-18T01:54:47;-11.20;1.00
9167;DHT22;4618;48.818;9.088;2022-12-18T01:57:14;-11.30;1.00
9167;DHT22;4618;48.818;9.088;2022-12-18T01:59:41;-11.40;99.90
9167;DHT22;4618;48.818;9.088;2022-12-18T02:02:08;-11.50;99.90
9167;DHT22;4618;48.818;9.088;2022-12-18T02:04:33;-11.40;99.90
9167;DHT22;4618;48.818;9.088;2022-12-18T02:09:46;-11.30;99.90
9167;DHT22;4618;48.818;9.088;2022-12-18T02:12:16;-11.30;99.90
9167;DHT22;4618;48.818;9.088;2022-12-18T02:17:23;-11.00;99.90
9167;DHT22;4618;48.818;9.088;2022-12-18T02:20:13;-10.90;99.90
9167;DHT22;4618;48.818;9.088;2022-12-18T02:28:26;-10.60;99.90
9167;DHT22;4618;48.818;9.088;2022-12-18T02:30:53;-10.60;99.90
9167;DHT22;4618;48.818;9.088;2022-12-18T02:33:22;-10.70;1.00
9167;DHT22;4618;48.818;9.088;2022-12-18T02:35:48;-10.70;1.00
9167;DHT22;4618;48.818;9.088;2022-12-18T02:38:15;-10.70;1.00
9167;DHT22;4618;48.818;9.088;2022-12-18T02:40:42;-10.70;1.00
9167;DHT22;4618;48.818;9.088;2022-12-18T02:43:14;-10.70;1.00
9167;DHT22;4618;48.818;9.088;2022-12-18T02:45:50;-10.70;1.00
9167;DHT22;4618;48.818;9.088;2022-12-18T02:48:24;-10.70;1.00
9167;DHT22;4618;48.818;9.088;2022-12-18T02:53:56;-10.50;1.00
9167;DHT22;4618;48.818;9.088;2022-12-18T02:56:30;-10.40;1.00
9167;DHT22;4618;48.818;9.088;2022-12-18T02:59:09;-10.40;1.00
9167;DHT22;4618;48.818;9.088;2022-12-18T03:02:02;-10.30;1.00
9167;DHT22;4618;48.818;9.088;2022-12-18T03:04:39;-10.20;32.20
9167;DHT22;4618;48.818;9.088;2022-12-18T03:07:13;-10.20;99.90
9167;DHT22;4618;48.818;9.088;2022-12-18T03:09:43;-10.20;99.90
9167;DHT22;4618;48.818;9.088;2022-12-18T03:12:18;-10.30;99.90
9167;DHT22;4618;48.818;9.088;2022-12-18T03:15:03;-10.50;1.00
9167;DHT22;4618;48.818;9.088;2022-12-18T03:17:32;-10.40;1.00
9167;DHT22;4618;48.818;9.088;2022-12-18T03:20:05;-10.50;1.00
9167;DHT22;4618;48.818;9.088;2022-12-18T03:22:33;-10.60;1.00
9167;DHT22;4618;48.818;9.088;2022-12-18T03:25:03;-10.50;1.00
9167;DHT22;4618;48.818;9.088;2022-12-18T03:27:31;-10.30;1.00
9167;DHT22;4618;48.818;9.088;2022-12-18T03:30:05;-10.20;1.00
9167;DHT22;4618;48.818;9.088;2022-12-18T03:32:42;-10.50;99.90
9167;DHT22;4618;48.818;9.088;2022-12-18T03:35:10;-10.60;1.00
9167;DHT22;4618;48.818;9.088;2022-12-18T03:37:36;-10.70;99.90
9167;DHT22;4618;48.818;9.088;2022-12-18T03:40:02;-10.80;1.00
9167;DHT22;4618;48.818;9.088;2022-12-18T03:42:36;-10.70;1.00
9167;DHT22;4618;48.818;9.088;2022-12-18T03:47:52;-10.40;1.00
9167;DHT22;4618;48.818;9.088;2022-12-18T03:50:52;-10.40;1.00
9167;DHT22;4618;48.818;9.088;2022-12-18T03:53:38;-10.50;1.00
9167;DHT22;4618;48.818;9.088;2022-12-18T03:56:05;-10.50;1.00
9167;DHT22;4618;48.818;9.088;2022-12-18T03:58:33;-10.50;1.00
9167;DHT22;4618;48.818;9.088;2022-12-18T04:01:02;-10.40;12.40
9167;DHT22;4618;48.818;9.088;2022-12-18T04:03:29;-10.50;27.00
9167;DHT22;4618;48.818;9.088;2022-12-18T04:05:58;-10.40;99.90
9167;DHT22;4618;48.818;9.088;2022-12-18T04:08:25;-10.40;99.90
9167;DHT22;4618;48.818;9.088;2022-12-18T04:10:51;-10.40;1.00
9167;DHT22;4618;48.818;9.088;2022-12-18T04:13:32;-10.40;1.00
9167;DHT22;4618;48.818;9.088;2022-12-18T04:15:58;-10.40;1.00
9167;DHT22;4618;48.818;9.088;2022-12-18T04:18:24;-10.40;69.70
9167;DHT22;4618;48.818;9.088;2022-12-18T04:20:49;-10.40;99.90
9167;DHT22;4618;48.818;9.088;2022-12-18T04:23:15;-10.30;99.90
9167;DHT22;4618;48.818;9.088;2022-12-18T04:25:41;-10.20;99.90
9167;DHT22;4618;48.818;9.088;2022-12-18T04:28:06;-10.30;99.90
9167;DHT22;4618;48.818;9.088;2022-12-18T04:30:32;-10.40;99.90
9167;DHT22;4618;48.818;9.088;2022-12-18T04:32:58;-10.40;99.90
9167;DHT22;4618;48.818;9.088;2022-12-18T04:35:23;-10.20;1.00
9167;DHT22;4618;48.818;9.088;2022-12-18T04:37:49;-10.30;1.00
9167;DHT22;4618;48.818;9.088;2022-12-18T04:40:14;-10.20;1.00
9167;DHT22;4618;48.818;9.088;2022-12-18T04:42:40;-10.20;1.00
9167;DHT22;4618;48.818;9.088;2022-12-18T04:45:07;-10.20;1.00
9167;DHT22;4618;48.818;9.088;2022-12-18T04:47:32;-10.10;1.00
9167;DHT22;4618;48.818;9.088;2022-12-18T04:49:58;-10.10;99.90
9167;DHT22;4618;48.818;9.088;2022-12-18T04:52:24;-10.00;99.90
9167;DHT22;4618;48.818;9.088;2022-12-18T04:54:49;-10.10;99.90
9167;DHT22;4618;48.818;9.088;2022-12-18T04:57:15;-10.00;99.90
9167;DHT22;4618;48.818;9.088;2022-12-18T04:59:40;-10.00;99.90
9167;DHT22;4618;48.818;9.088;2022-12-18T05:02:06;-10.20;99.90
9167;DHT22;4618;48.818;9.088;2022-12-18T05:04:32;-10.30;1.00
9167;DHT22;4618;48.818;9.088;2022-12-18T05:06:57;-10.50;1.00
9167;DHT22;4618;48.818;9.088;2022-12-18T05:09:23;-10.70;1.00
9167;DHT22;4618;48.818;9.088;2022-12-18T05:11:49;-10.60;1.00
9167;DHT22;4618;48.818;9.088;2022-12-18T05:14:15;-10.60;1.00
9167;DHT22;4618;48.818;9.088;2022-12-18T05:16:40;-10.50;64.40
9167;DHT22;4618;48.818;9.088;2022-12-18T05:19:06;-10.40;99.90
9167;DHT22;4618;48.818;9.088;2022-12-18T05:21:31;-10.20;99.90
9167;DHT22;4618;48.818;9.088;2022-12-18T05:23:57;-10.20;99.90
9167;DHT22;4618;48.818;9.088;2022-12-18T05:26:23;-10.40;26.40
9167;DHT22;4618;48.818;9.088;2022-12-18T05:28:48;-10.60;1.00
9167;DHT22;4618;48.818;9.088;2022-12-18T05:31:14;-10.70;1.00
9167;DHT22;4618;48.818;9.088;2022-12-18T05:33:40;-10.60;1.00
9167;DHT22;4618;48.818;9.088;2022-12-18T05:36:07;-10.60;1.00
9167;DHT22;4618;48.818;9.088;2022-12-18T05:38:35;-10.60;26.40
9167;DHT22;4618;48.818;9.088;2022-12-18T05:41:01;-10.50;96.10
9167;DHT22;4618;48.818;9.088;2022-12-18T05:43:28;-10.50;99.90
9167;DHT22;4618;48.818;9.088;2022-12-18T05:45:54;-10.40;99.90
9167;DHT22;4618;48.818;9.088;2022-12-18T05:48:20;-10.20;99.90
9167;DHT22;4618;48.818;9.088;2022-12-18T05:50:47;-10.20;99.90
9167;DHT22;4618;48.818;9.088;2022-12-18T05:53:15;-10.20;99.90
9167;DHT22;4618;48.818;9.088;2022-12-18T05:55:41;-10.10;99.90
9167;DHT22;4618;48.818;9.088;2022-12-18T05:58:08;-10.10;63.80
9167;DHT22;4618;48.818;9.088;2022-12-18T06:00:37;-10.10;1.00
9167;DHT22;4618;48.818;9.088;2022-12-18T06:03:06;-10.30;1.00
9167;DHT22;4618;48.818;9.088;2022-12-18T06:05:35;-10.30;1.00
9167;DHT22;4618;48.818;9.088;2022-12-18T06:08:02;-10.50;1.00
9167;DHT22;4618;48.818;9.088;2022-12-18T06:10:28;-10.60;1.00
9167;DHT22;4618;48.818;9.088;2022-12-18T06:12:53;-10.60;1.00
9167;DHT22;4618;48.818;9.088;2022-12-18T06:15:19;-10.80;1.00
9167;DHT22;4618;48.818;9.088;2022-12-18T06:17:45;-10.70;1.00
9167;DHT22;4618;48.818;9.088;2022-12-18T06:20:10;-10.80;1.00
9167;DHT22;4618;48.818;9.088;2022-12-18T06:22:36;-10.90;1.00
9167;DHT22;4618;48.818;9.088;2022-12-18T06:25:02;-10.80;1.00
9167;DHT22;4618;48.818;9.088;2022-12-18T06:27:27;-10.90;1.00
9167;DHT22;4618;48.818;9.088;2022-12-18T06:29:53;-10.90;1.00
9167;DHT22;4618;48.818;9.088;2022-12-18T06:32:19;-10.90;1.00
9167;DHT22;4618;48.818;9.088;2022-12-18T06:34:44;-10.90;1.00
9167;DHT22;4618;48.818;9.088;2022-12-18T06:37:10;-10.90;1.00
9167;DHT22;4618;48.818;9.088;2022-12-18T06:39:35;-10.90;1.00
9167;DHT22;4618;48.818;9.088;2022-12-18T06:42:01;-11.10;1.00
9167;DHT22;4618;48.818;9.088;2022-12-18T06:44:27;-11.20;1.00
9167;DHT22;4618;48.818;9.088;2022-12-18T06:46:52;-11.30;99.90
9167;DHT22;4618;48.818;9.088;2022-12-18T06:49:18;-11.50;99.90
9167;DHT22;4618;48.818;9.088;2022-12-18T06:51:43;-11.50;99.90
9167;DHT22;4618;48.818;9.088;2022-12-18T06:54:09;-11.40;1.00
9167;DHT22;4618;48.818;9.088;2022-12-18T06:56:34;-11.30;1.00
9167;DHT22;4618;48.818;9.088;2022-12-18T06:59:00;-11.30;1.00
9167;DHT22;4618;48.818;9.088;2022-12-18T07:01:26;-11.20;1.00
9167;DHT22;4618;48.818;9.088;2022-12-18T07:03:53;-11.10;68.00
9167;DHT22;4618;48.818;9.088;2022-12-18T07:06:21;-11.00;99.90
9167;DHT22;4618;48.818;9.088;2022-12-18T07:08:48;-10.90;99.90
9167;DHT22;4618;48.818;9.088;2022-12-18T07:11:15;-10.80;99.90
9167;DHT22;4618;48.818;9.088;2022-12-18T07:13:41;-10.90;1.00
9167;DHT22;4618;48.818;9.088;2022-12-18T07:16:10;-11.10;1.00
9167;DHT22;4618;48.818;9.088;2022-12-18T07:18:36;-11.30;1.00
9167;DHT22;4618;48.818;9.088;2022-12-18T07:21:07;-11.20;99.90
9167;DHT22;4618;48.818;9.088;2022-12-18T07:23:34;-11.20;1.00
9167;DHT22;4618;48.818;9.088;2022-12-18T07:26:11;-11.10;99.90
9167;DHT22;4618;48.818;9.088;2022-12-18T07:28:38;-11.20;99.90
9167;DHT22;4618;48.818;9.088;2022-12-18T07:31:05;-11.10;99.90
9167;DHT22;4618;48.818;9.088;2022-12-18T07:33:32;-11.10;1.00
9167;DHT22;4618;48.818;9.088;2022-12-18T07:36:02;-11.10;1.00
9167;DHT22;4618;48.818;9.088;2022-12-18T07:38:29;-11.00;1.00
9167;DHT22;4618;48.818;9.088;2022-12-18T07:40:59;-11.00;1.00
9167;DHT22;4618;48.818;9.088;2022-12-18T07:43:25;-10.80;1.00
9167;DHT22;4618;48.818;9.088;2022-12-18T07:45:50;-10.80;1.00
9167;DHT22;4618;48.818;9.088;2022-12-18T07:48:16;-10.70;1.00
9167;DHT22;4618;48.818;9.088;2022-12-18T07:50:41;-10.50;1.00
9167;DHT22;4618;48.818;9.088;2022-12-18T07:53:07;-10.40;1.00
9167;DHT22;4618;48.818;9.088;2022-12-18T07:55:33;-10.30;1.00
9167;DHT22;4618;48.818;9.088;2022-12-18T07:58:01;-10.20;1.00
9167;DHT22;4618;48.818;9.088;2022-12-18T08:00:27;-10.10;1.00
9167;DHT22;4618;48.818;9.088;2022-12-18T08:02:53;-10.10;1.00
9167;DHT22;4618;48.818;9.088;2022-12-18T08:05:18;-9.90;1.00
9167;DHT22;4618;48.818;9.088;2022-12-18T08:07:46;-9.70;94.60
9167;DHT22;4618;48.818;9.088;2022-12-18T08:10:12;-9.60;99.90
9167;DHT22;4618;48.818;9.088;2022-12-18T08:12:37;-9.40;99.90
9167;DHT22;4618;48.818;9.088;2022-12-18T08:15:03;-9.30;99.90
9167;DHT22;4618;48.818;9.088;2022-12-18T08:17:29;-9.10;99.90
9167;DHT22;4618;48.818;9.088;2022-12-18T08:19:54;-8.90;99.90
9167;DHT22;4618;48.818;9.088;2022-12-18T08:22:20;-8.80;99.90
9167;DHT22;4618;48.818;9.088;2022-12-18T08:24:46;-8.70;99.90
9167;DHT22;4618;48.818;9.088;2022-12-18T08:27:11;-8.60;99.90
9167;DHT22;4618;48.818;9.088;2022-12-18T08:29:37;-8.50;99.90
9167;DHT22;4618;48.818;9.088;2022-12-18T08:32:03;-8.50;99.90
9167;DHT22;4618;48.818;9.088;2022-12-18T08:34:29;-8.40;99.90
9167;DHT22;4618;48.818;9.088;2022-12-18T08:36:54;-8.30;99.90
9167;DHT22;4618;48.818;9.088;2022-12-18T08:39:20;-8.30;83.60
9167;DHT22;4618;48.818;9.088;2022-12-18T08:41:46;-8.20;11.60
9167;DHT22;4618;48.818;9.088;2022-12-18T08:44:31;-8.20;1.00
9167;DHT22;4618;48.818;9.088;2022-12-18T08:47:07;-8.20;1.00
9167;DHT22;4618;48.818;9.088;2022-12-18T08:49:33;-8.00;1.00
9167;DHT22;4618;48.818;9.088;2022-12-18T08:51:59;-7.90;1.00
9167;DHT22;4618;48.818;9.088;2022-12-18T08:54:25;-7.80;1.00
9167;DHT22;4618;48.818;9.088;2022-12-18T08:56:51;-7.70;1.00
9167;DHT22;4618;48.818;9.088;2022-12-18T08:59:17;-7.70;1.00
9167;DHT22;4618;48.818;9.088;2022-12-18T09:01:43;-7.50;1.00
9167;DHT22;4618;48.818;9.088;2022-12-18T09:04:09;-7.40;1.00
9167;DHT22;4618;48.818;9.088;2022-12-18T09:06:36;-7.30;1.00
9167;DHT22;4618;48.818;9.088;2022-12-18T09:09:03;-7.20;1.00
9167;DHT22;4618;48.818;9.088;2022-12-18T09:11:29;-7.00;1.00
9167;DHT22;4618;48.818;9.088;2022-12-18T09:13:56;-6.90;1.00
9167;DHT22;4618;48.818;9.088;2022-12-18T09:16:23;-6.80;99.90
9167;DHT22;4618;48.818;9.088;2022-12-18T09:18:49;-6.50;99.90
9167;DHT22;4618;48.818;9.088;2022-12-18T09:21:17;-5.70;99.90
9167;DHT22;4618;48.818;9.088;2022-12-18T09:23:45;-4.90;1.00
9167;DHT22;4618;48.818;9.088;2022-12-18T09:26:14;-4.10;1.00
9167;DHT22;4618;48.818;9.088;2022-12-18T09:28:39;-3.30;1.00
9167;DHT22;4618;48.818;9.088;2022-12-18T09:31:08;-2.90;1.00
9167;DHT22;4618;48.818;9.088;2022-12-18T09:33:36;-2.70;99.90
9167;DHT22;4618;48.818;9.088;2022-12-18T09:36:04;-1.60;99.90
9167;DHT22;4618;48.818;9.088;2022-12-18T09:38:30;-0.90;1.00
9167;DHT22;4618;48.818;9.088;2022-12-18T09:41:00;0.30;99.90
9167;DHT22;4618;48.818;9.088;2022-12-18T09:43:51;0.40;27.30
9167;DHT22;4618;48.818;9.088;2022-12-18T09:46:24;0.50;99.90
9167;DHT22;4618;48.818;9.088;2022-12-18T09:48:54;0.70;99.90
9167;DHT22;4618;48.818;9.088;2022-12-18T09:51:32;0.10;1.00
9167;DHT22;4618;48.818;9.088;2022-12-18T09:54:14;1.40;4.20
9167;DHT22;4618;48.818;9.088;2022-12-18T09:56:42;1.90;1.00
9167;DHT22;4618;48.818;9.088;2022-12-18T09:59:23;2.20;99.90
9167;DHT22;4618;48.818;9.088;2022-12-18T10:01:49;2.30;1.00
9167;DHT22;4618;48.818;9.088;2022-12-18T10:04:15;2.40;56.60
9167;DHT22;4618;48.818;9.088;2022-12-18T10:06:53;2.20;1.00
9167;DHT22;4618;48.818;9.088;2022-12-18T10:12:16;3.60;1.00
9167;DHT22;4618;48.818;9.088;2022-12-18T10:17:38;4.30;99.90
9167;DHT22;4618;48.818;9.088;2022-12-18T10:22:55;4.40;99.90
9167;DHT22;4618;48.818;9.088;2022-12-18T10:27:53;4.70;99.90
9167;DHT22;4618;48.818;9.088;2022-12-18T10:30:22;5.70;99.90
9167;DHT22;4618;48.818;9.088;2022-12-18T10:32:49;6.00;99.90
9167;DHT22;4618;48.818;9.088;2022-12-18T10:35:23;6.40;94.90
9167;DHT22;4618;48.818;9.088;2022-12-18T10:40:59;7.20;1.00
9167;DHT22;4618;48.818;9.088;2022-12-18T10:43:30;7.00;1.00
9167;DHT22;4618;48.818;9.088;2022-12-18T10:48:32;7.10;1.00
9167;DHT22;4618;48.818;9.088;2022-12-18T10:50:58;6.90;1.00
9167;DHT22;4618;48.818;9.088;2022-12-18T10:53:30;6.60;1.00
9167;DHT22;4618;48.818;9.088;2022-12-18T10:56:02;6.30;1.00
9167;DHT22;4618;48.818;9.088;2022-12-18T10:58:33;5.60;1.00
9167;DHT22;4618;48.818;9.088;2022-12-18T11:01:15;5.90;1.00
9167;DHT22;4618;48.818;9.088;2022-12-18T11:03:46;5.60;13.50
9167;DHT22;4618;48.818;9.088;2022-12-18T11:06:15;5.60;6.80
9167;DHT22;4618;48.818;9.088;2022-12-18T11:08:41;5.30;35.40
9167;DHT22;4618;48.818;9.088;2022-12-18T11:11:21;5.70;1.00
9167;DHT22;4618;48.818;9.088;2022-12-18T11:16:20;6.10;4.70
9167;DHT22;4618;48.818;9.088;2022-12-18T11:18:45;5.80;4.50
9167;DHT22;4618;48.818;9.088;2022-12-18T11:21:13;5.80;4.60
9167;DHT22;4618;48.818;9.088;2022-12-18T11:23:48;5.70;3.30
9167;DHT22;4618;48.818;9.088;2022-12-18T11:26:14;5.30;14.80
9167;DHT22;4618;48.818;9.088;2022-12-18T11:28:51;6.00;1.00
9167;DHT22;4618;48.818;9.088;2022-12-18T11:31:28;6.60;1.00
9167;DHT22;4618;48.818;9.088;2022-12-18T11:34:05;6.00;1.00
9167;DHT22;4618;48.818;9.088;2022-12-18T11:36:39;6.80;1.00
9167;DHT22;4618;48.818;9.088;2022-12-18T11:41:49;6.70;1.00
9167;DHT22;4618;48.818;9.088;2022-12-18T11:44:46;6.70;1.00
9167;DHT22;4618;48.818;9.088;2022-12-18T11:50:01;5.50;1.00
9167;DHT22;4618;48.818;9.088;2022-12-18T11:52:38;5.70;1.00
9167;DHT22;4618;48.818;9.088;2022-12-18T11:58:15;6.10;1.00
9167;DHT22;4618;48.818;9.088;2022-12-18T12:01:04;6.60;1.00
9167;DHT22;4618;48.818;9.088;2022-12-18T12:30:39;2.90;99.90
9167;DHT22;4618;48.818;9.088;2022-12-18T12:36:17;1.90;99.90
9167;DHT22;4618;48.818;9.088;2022-12-18T12:39:01;2.30;1.00
9167;DHT22;4618;48.818;9.088;2022-12-18T12:41:32;2.50;99.90
9167;DHT22;4618;48.818;9.088;2022-12-18T12:44:24;2.30;1.00
9167;DHT22;4618;48.818;9.088;2022-12-18T12:46:52;2.30;1.00
9167;DHT22;4618;48.818;9.088;2022-12-18T12:49:26;2.30;99.90
9167;DHT22;4618;48.818;9.088;2022-12-18T12:52:00;2.10;1.00
9167;DHT22;4618;48.818;9.088;2022-12-18T12:54:32;2.20;1.00
9167;DHT22;4618;48.818;9.088;2022-12-18T12:57:31;2.50;99.90
9167;DHT22;4618;48.818;9.088;2022-12-18T13:00:18;2.70;99.90
9167;DHT22;4618;48.818;9.088;2022-12-18T13:08:03;1.60;1.00
9167;DHT22;4618;48.818;9.088;2022-12-18T13:10:38;1.60;1.00
9167;DHT22;4618;48.818;9.088;2022-12-18T13:15:38;2.50;1.00
9167;DHT22;4618;48.818;9.088;2022-12-18T13:20:45;2.60;99.90
9167;DHT22;4618;48.818;9.088;2022-12-18T13:25:56;1.80;1.00
9167;DHT22;4618;48.818;9.088;2022-12-18T13:31:10;2.20;1.00
9167;DHT22;4618;48.818;9.088;2022-12-18T13:38:41;1.90;1.00
9167;DHT22;4618;48.818;9.088;2022-12-18T13:43:44;1.20;1.00
9167;DHT22;4618;48.818;9.088;2022-12-18T13:51:29;0.50;99.90
9167;DHT22;4618;48.818;9.088;2022-12-18T13:54:01;0.50;99.90
9167;DHT22;4618;48.818;9.088;2022-12-18T13:56:31;0.60;99.90
9167;DHT22;4618;48.818;9.088;2022-12-18T13:59:09;0.20;1.00
9167;DHT22;4618;48.818;9.088;2022-12-18T14:01:36;0.10;1.00
9167;DHT22;4618;48.818;9.088;2022-12-18T14:04:18;0.00;1.00
9167;DHT22;4618;48.818;9.088;2022-12-18T14:06:45;0.10;99.90
9167;DHT22;4618;48.818;9.088;2022-12-18T14:09:24;0.00;1.00
9167;DHT22;4618;48.818;9.088;2022-12-18T14:11:51;0.00;1.00
9167;DHT22;4618;48.818;9.088;2022-12-18T14:14:43;-0.10;1.00
9167;DHT22;4618;48.818;9.088;2022-12-18T14:17:12;-0.40;1.00
9167;DHT22;4618;48.818;9.088;2022-12-18T14:19:42;-0.50;1.00
9167;DHT22;4618;48.818;9.088;2022-12-18T14:22:25;-0.60;1.00
9167;DHT22;4618;48.818;9.088;2022-12-18T14:27:46;-0.60;1.00
9167;DHT22;4618;48.818;9.088;2022-12-18T14:35:31;-1.20;99.90
9167;DHT22;4618;48.818;9.088;2022-12-18T14:40:42;-1.60;1.00
9167;DHT22;4618;48.818;9.088;2022-12-18T14:43:10;-1.80;1.00
9167;DHT22;4618;48.818;9.088;2022-12-18T14:45:36;-2.00;1.00
9167;DHT22;4618;48.818;9.088;2022-12-18T14:48:19;-2.10;10.50
9167;DHT22;4618;48.818;9.088;2022-12-18T14:50:57;-2.30;99.00
9167;DHT22;4618;48.818;9.088;2022-12-18T14:56:22;-2.30;99.90
9167;DHT22;4618;48.818;9.088;2022-12-18T14:58:53;-2.50;99.90
9167;DHT22;4618;48.818;9.088;2022-12-18T15:01:27;-2.60;99.90
9167;DHT22;4618;48.818;9.088;2022-12-18T15:03:55;-2.80;1.00
9167;DHT22;4618;48.818;9.088;2022-12-18T15:06:34;-2.80;1.00
9167;DHT22;4618;48.818;9.088;2022-12-18T15:09:03;-2.90;1.00
9167;DHT22;4618;48.818;9.088;2022-12-18T15:14:30;-3.10;99.90
9167;DHT22;4618;48.818;9.088;2022-12-18T15:16:58;-3.10;99.90
9167;DHT22;4618;48.818;9.088;2022-12-18T15:19:38;-3.20;99.90
9167;DHT22;4618;48.818;9.088;2022-12-18T15:22:11;-3.20;1.00
9167;DHT22;4618;48.818;9.088;2022-12-18T15:24:41;-3.30;1.00
9167;DHT22;4618;48.818;9.088;2022-12-18T15:27:20;-3.30;1.00
9167;DHT22;4618;48.818;9.088;2022-12-18T15:30:19;-3.30;1.00
9167;DHT22;4618;48.818;9.088;2022-12-18T15:32:45;-3.40;1.00
9167;DHT22;4618;48.818;9.088;2022-12-18T15:35:22;-3.50;1.00
9167;DHT22;4618;48.818;9.088;2022-12-18T15:37:50;-3.50;70.30
9167;DHT22;4618;48.818;9.088;2022-12-18T15:40:21;-3.50;99.90
9167;DHT22;4618;48.818;9.088;2022-12-18T15:42:47;-3.50;1.00
9167;DHT22;4618;48.818;9.088;2022-12-18T15:45:33;-3.50;1.80
9167;DHT22;4618;48.818;9.088;2022-12-18T15:47:59;-3.60;1.00
9167;DHT22;4618;48.818;9.088;2022-12-18T15:50:24;-3.60;11.80
9167;DHT22;4618;48.818;9.088;2022-12-18T15:52:52;-3.60;99.90
9167;DHT22;4618;48.818;9.088;2022-12-18T15:55:21;-3.70;99.90
9167;DHT22;4618;48.818;9.088;2022-12-18T15:58:06;-3.70;99.90
9167;DHT22;4618;48.818;9.088;2022-12-18T16:00:34;-3.80;1.00
9167;DHT22;4618;48.818;9.088;2022-12-18T16:03:00;-3.90;1.00
9167;DHT22;4618;48.818;9.088;2022-12-18T16:05:27;-3.90;1.00
9167;DHT22;4618;48.818;9.088;2022-12-18T16:07:52;-3.90;1.00
9167;DHT22;4618;48.818;9.088;2022-12-18T16:10:19;-4.00;1.00
9167;DHT22;4618;48.818;9.088;2022-12-18T16:12:45;-4.00;99.90
9167;DHT22;4618;48.818;9.088;2022-12-18T16:15:12;-3.90;1.00
9167;DHT22;4618;48.818;9.088;2022-12-18T16:17:39;-3.90;1.00
9167;DHT22;4618;48.818;9.088;2022-12-18T16:20:16;-4.00;1.00
9167;DHT22;4618;48.818;9.088;2022-12-18T16:22:43;-3.90;1.00
9167;DHT22;4618;48.818;9.088;2022-12-18T16:25:20;-3.90;1.00
9167;DHT22;4618;48.818;9.088;2022-12-18T16:27:46;-3.90;1.00
9167;DHT22;4618;48.818;9.088;2022-12-18T16:30:20;-3.90;1.00
9167;DHT22;4618;48.818;9.088;2022-12-18T16:32:46;-4.00;1.00
9167;DHT22;4618;48.818;9.088;2022-12-18T16:35:13;-3.90;1.00
9167;DHT22;4618;48.818;9.088;2022-12-18T16:37:39;-3.90;1.00
9167;DHT22;4618;48.818;9.088;2022-12-18T16:40:06;-3.90;1.00
9167;DHT22;4618;48.818;9.088;2022-12-18T16:42:37;-3.90;1.00
9167;DHT22;4618;48.818;9.088;2022-12-18T16:45:04;-3.90;1.00
9167;DHT22;4618;48.818;9.088;2022-12-18T16:47:30;-3.90;1.00
9167;DHT22;4618;48.818;9.088;2022-12-18T16:49:56;-3.90;1.00
9167;DHT22;4618;48.818;9.088;2022-12-18T16:52:22;-3.90;1.00
9167;DHT22;4618;48.818;9.088;2022-12-18T16:54:47;-3.90;1.00
9167;DHT22;4618;48.818;9.088;2022-12-18T16:57:16;-3.90;1.00
9167;DHT22;4618;48.818;9.088;2022-12-18T16:59:42;-3.80;1.00
9167;DHT22;4618;48.818;9.088;2022-12-18T17:02:26;-3.80;99.90
9167;DHT22;4618;48.818;9.088;2022-12-18T17:04:55;-3.70;99.90
9167;DHT22;4618;48.818;9.088;2022-12-18T17:07:22;-3.60;99.90
9167;DHT22;4618;48.818;9.088;2022-12-18T17:09:48;-3.50;1.00
9167;DHT22;4618;48.818;9.088;2022-12-18T17:12:18;-3.50;1.00
9167;DHT22;4618;48.818;9.088;2022-12-18T17:14:44;-3.40;1.00
9167;DHT22;4618;48.818;9.088;2022-12-18T17:17:09;-3.40;1.00
9167;DHT22;4618;48.818;9.088;2022-12-18T17:19:35;-3.40;1.00
9167;DHT22;4618;48.818;9.088;2022-12-18T17:22:01;-3.30;1.00
9167;DHT22;4618;48.818;9.088;2022-12-18T17:24:26;-3.30;1.00
9167;DHT22;4618;48.818;9.088;2022-12-18T17:26:52;-3.30;1.00
9167;DHT22;4618;48.818;9.088;2022-12-18T17:29:19;-3.30;99.90
9167;DHT22;4618;48.818;9.088;2022-12-18T17:31:45;-3.20;99.90
9167;DHT22;4618;48.818;9.088;2022-12-18T17:34:12;-3.30;99.90
9167;DHT22;4618;48.818;9.088;2022-12-18T17:36:38;-3.20;99.90
9167;DHT22;4618;48.818;9.088;2022-12-18T17:39:05;-3.20;99.90
9167;DHT22;4618;48.818;9.088;2022-12-18T17:41:31;-3.20;99.90
9167;DHT22;4618;48.818;9.088;2022-12-18T17:43:59;-3.20;99.90
9167;DHT22;4618;48.818;9.088;2022-12-18T17:46:26;-3.20;99.90
9167;DHT22;4618;48.818;9.088;2022-12-18T17:48:59;-3.20;50.50
9167;DHT22;4618;48.818;9.088;2022-12-18T17:51:26;-3.10;1.00
9167;DHT22;4618;48.818;9.088;2022-12-18T17:53:52;-3.10;1.00
9167;DHT22;4618;48.818;9.088;2022-12-18T17:56:19;-3.00;1.00
9167;DHT22;4618;48.818;9.088;2022-12-18T17:58:46;-3.00;1.00
9167;DHT22;4618;48.818;9.088;2022-12-18T18:01:14;-3.00;1.00
9167;DHT22;4618;48.818;9.088;2022-12-18T18:03:40;-3.10;1.00
9167;DHT22;4618;48.818;9.088;2022-12-18T18:06:06;-3.10;34.10
9167;DHT22;4618;48.818;9.088;2022-12-18T18:08:33;-3.10;51.10
9167;DHT22;4618;48.818;9.088;2022-12-18T18:11:03;-3.10;87.40
9167;DHT22;4618;48.818;9.088;2022-12-18T18:13:48;-3.10;93.00
9167;DHT22;4618;48.818;9.088;2022-12-18T18:16:32;-3.10;99.60
9167;DHT22;4618;48.818;9.088;2022-12-18T18:19:00;-3.00;99.90
9167;DHT22;4618;48.818;9.088;2022-12-18T18:21:27;-3.00;99.90
9167;DHT22;4618;48.818;9.088;2022-12-18T18:23:53;-3.00;92.90